Ana Sayfa
METAR-TAF:

METAR-TAF

Havaalanları :

Ann Arbor, Michigan, Amerika Birleşik Devletleri

Enlem: 42-13-26N, Boylam: 083-44-24W, yükseklik: 255 m

Güncel hava durumu gözlemi

Rapor saat 04:53 UTC de 30 dakika önce yapıldı.
Rüzgar güneybatıdan 3 kt
Sıcaklık -9°C
Nem 85%
Basınç 1030 hPa
Görüş mesafesi: 8.0 km
Açık gökyüzü
Pus

METAR: KARB 220453Z AUTO 22003KT 5SM BR CLR M09/M11 A3041 RMK AO2 SLP312 T10891111 410171100

Saat: 00:23 (05:23 UTC)


TAF: eksik

4.000'den fazla havaalanı için hava durumu gözlemleri ve tahminleri (METAR ve TAF raporları).

Kullanılabilir istasyonlar harita üzerinde sarı ve kırmızı noktalarla gösterilir.

İstasyonun adını görmek için fareyi noktanın üzerinde gezdirin.

Sonrasında hava gözlem ve tahminlerini görmek için tıklayın.

Haritayı değiştirmek için: yaklaştırmak için siyah artı işaretli yeşil düğmeye ve uzaklaştırmak için de eksi işaretli düğmeye hızla tıklayın; bitişik haritalar için yeşil okları kullanın.


METAR-TAF: